sensor_id;sensor_type;location;lat;lon;timestamp;pressure;altitude;pressure_sealevel;temperature;humidity
61554;BME280;47425;51.976;5.326;2022-10-16T09:02:48;101336.97;;;18.59;59.75
61554;BME280;47425;51.976;5.326;2022-10-16T09:05:38;101341.41;;;19.16;58.73
61554;BME280;47425;51.976;5.326;2022-10-16T09:08:40;101346.09;;;19.65;57.44
61554;BME280;47425;51.976;5.326;2022-10-16T09:11:15;101351.25;;;20.03;56.33
61554;BME280;47425;51.976;5.326;2022-10-16T09:14:19;101358.41;;;20.36;55.70
61554;BME280;47425;51.976;5.326;2022-10-16T09:16:54;101356.38;;;20.57;55.04
61554;BME280;47425;51.976;5.326;2022-10-16T09:19:37;101350.25;;;20.73;54.31
61554;BME280;47425;51.976;5.326;2022-10-16T09:22:15;101352.91;;;20.89;54.12
61554;BME280;47425;51.976;5.326;2022-10-16T09:24:42;101363.66;;;21.03;53.42
61554;BME280;47425;51.976;5.326;2022-10-16T09:27:11;101364.94;;;21.12;53.27
61554;BME280;47425;51.976;5.326;2022-10-16T09:29:38;101368.78;;;21.22;53.04
61554;BME280;47425;51.976;5.326;2022-10-16T09:32:12;101374.63;;;21.29;53.20
61554;BME280;47425;51.976;5.326;2022-10-16T09:34:43;101371.63;;;21.35;52.84
61554;BME280;47425;51.976;5.326;2022-10-16T09:37:13;101373.72;;;21.44;52.54
61554;BME280;47425;51.976;5.326;2022-10-16T09:39:49;101370.63;;;21.52;52.72
61554;BME280;47425;51.976;5.326;2022-10-16T09:42:20;101377.28;;;21.61;52.20
61554;BME280;47425;51.976;5.326;2022-10-16T09:44:49;101375.22;;;21.66;52.33
61554;BME280;47425;51.976;5.326;2022-10-16T09:47:19;101387.31;;;21.72;52.19
61554;BME280;47425;51.976;5.326;2022-10-16T09:52:23;101383.84;;;21.70;52.29
61554;BME280;47425;51.976;5.326;2022-10-16T09:54:57;101381.47;;;21.65;52.29
61554;BME280;47425;51.976;5.326;2022-10-16T09:57:25;101387.41;;;21.70;52.40
61554;BME280;47425;51.976;5.326;2022-10-16T09:59:55;101389.03;;;21.73;51.73
61554;BME280;47425;51.976;5.326;2022-10-16T10:02:34;101394.94;;;21.78;51.77
61554;BME280;47425;51.976;5.326;2022-10-16T10:05:00;101390.19;;;21.83;51.59
61554;BME280;47425;51.976;5.326;2022-10-16T10:07:30;101392.09;;;21.81;51.76
61554;BME280;47425;51.976;5.326;2022-10-16T10:10:03;101390.97;;;21.85;51.90
61554;BME280;47425;51.976;5.326;2022-10-16T10:12:31;101397.06;;;21.87;51.69
61554;BME280;47425;51.976;5.326;2022-10-16T10:17:31;101401.72;;;21.84;51.97
61554;BME280;47425;51.976;5.326;2022-10-16T10:20:01;101406.47;;;21.78;52.21
61554;BME280;47425;51.976;5.326;2022-10-16T10:22:41;101402.75;;;21.81;51.84
61554;BME280;47425;51.976;5.326;2022-10-16T10:28:28;101409.78;;;21.82;52.24
61554;BME280;47425;51.976;5.326;2022-10-16T10:31:05;101416.09;;;21.81;51.84
61554;BME280;47425;51.976;5.326;2022-10-16T10:33:46;101416.94;;;21.82;52.26
61554;BME280;47425;51.976;5.326;2022-10-16T10:36:32;101425.94;;;21.95;52.01
61554;BME280;47425;51.976;5.326;2022-10-16T10:39:02;101415.81;;;21.86;51.70
61554;BME280;47425;51.976;5.326;2022-10-16T10:46:41;101431.41;;;21.77;51.80
61554;BME280;47425;51.976;5.326;2022-10-16T10:52:02;101427.88;;;21.77;51.84
61554;BME280;47425;51.976;5.326;2022-10-16T10:54:48;101425.13;;;21.78;51.37
61554;BME280;47425;51.976;5.326;2022-10-16T10:57:32;101429.69;;;21.76;51.58
61554;BME280;47425;51.976;5.326;2022-10-16T11:03:24;101442.25;;;21.74;51.81
61554;BME280;47425;51.976;5.326;2022-10-16T11:06:00;101433.56;;;21.71;51.57
61554;BME280;47425;51.976;5.326;2022-10-16T11:08:36;101434.69;;;21.67;51.78
61554;BME280;47425;51.976;5.326;2022-10-16T11:11:19;101442.69;;;21.67;51.54
61554;BME280;47425;51.976;5.326;2022-10-16T11:14:22;101451.44;;;21.69;51.77
61554;BME280;47425;51.976;5.326;2022-10-16T11:19:46;101457.06;;;21.64;51.98
61554;BME280;47425;51.976;5.326;2022-10-16T11:22:34;101458.00;;;21.63;51.72
61554;BME280;47425;51.976;5.326;2022-10-16T11:25:23;101456.13;;;21.65;51.99
61554;BME280;47425;51.976;5.326;2022-10-16T11:30:57;101468.66;;;21.63;51.89
61554;BME280;47425;51.976;5.326;2022-10-16T11:33:37;101452.00;;;21.59;51.75
61554;BME280;47425;51.976;5.326;2022-10-16T11:36:12;101451.91;;;21.61;51.55
61554;BME280;47425;51.976;5.326;2022-10-16T11:41:27;101465.22;;;21.61;51.75
61554;BME280;47425;51.976;5.326;2022-10-16T11:47:11;101471.41;;;21.61;51.51
61554;BME280;47425;51.976;5.326;2022-10-16T11:49:40;101469.53;;;21.64;51.75
61554;BME280;47425;51.976;5.326;2022-10-16T11:52:22;101473.91;;;21.65;51.73
61554;BME280;47425;51.976;5.326;2022-10-16T11:55:04;101479.06;;;21.68;51.75
61554;BME280;47425;51.976;5.326;2022-10-16T11:57:40;101478.09;;;21.69;51.30
61554;BME280;47425;51.976;5.326;2022-10-16T12:00:26;101486.03;;;21.70;51.34
61554;BME280;47425;51.976;5.326;2022-10-16T12:06:12;101488.44;;;21.75;51.63
61554;BME280;47425;51.976;5.326;2022-10-16T12:08:40;101495.38;;;21.77;51.20
61554;BME280;47425;51.976;5.326;2022-10-16T12:16:39;101494.06;;;21.85;51.12
61554;BME280;47425;51.976;5.326;2022-10-16T12:19:16;101489.59;;;22.01;51.03
61554;BME280;47425;51.976;5.326;2022-10-16T12:21:43;101489.94;;;21.95;50.73
61554;BME280;47425;51.976;5.326;2022-10-16T12:26:58;101486.25;;;21.98;50.59
61554;BME280;47425;51.976;5.326;2022-10-16T12:29:34;101503.97;;;21.99;50.86
61554;BME280;47425;51.976;5.326;2022-10-16T12:32:03;101501.97;;;22.02;50.77
61554;BME280;47425;51.976;5.326;2022-10-16T12:34:39;101500.25;;;22.01;50.96
61554;BME280;47425;51.976;5.326;2022-10-16T12:37:15;101504.56;;;22.04;50.68
61554;BME280;47425;51.976;5.326;2022-10-16T12:39:47;101505.13;;;22.09;50.78
61554;BME280;47425;51.976;5.326;2022-10-16T12:44:47;101501.69;;;22.07;50.60
61554;BME280;47425;51.976;5.326;2022-10-16T12:47:24;101505.22;;;22.07;50.72
61554;BME280;47425;51.976;5.326;2022-10-16T12:49:59;101503.25;;;22.11;50.12
61554;BME280;47425;51.976;5.326;2022-10-16T12:52:35;101499.72;;;22.10;50.51
61554;BME280;47425;51.976;5.326;2022-10-16T12:55:03;101495.25;;;22.11;50.22
61554;BME280;47425;51.976;5.326;2022-10-16T13:00:44;101500.88;;;22.21;50.16
61554;BME280;47425;51.976;5.326;2022-10-16T13:09:45;101497.88;;;22.27;50.13
61554;BME280;47425;51.976;5.326;2022-10-16T13:12:30;101500.63;;;22.25;50.04
61554;BME280;47425;51.976;5.326;2022-10-16T13:15:24;101515.59;;;22.28;50.12
61554;BME280;47425;51.976;5.326;2022-10-16T13:18:14;101509.22;;;22.31;50.07
61554;BME280;47425;51.976;5.326;2022-10-16T13:20:55;101512.84;;;22.29;50.06
61554;BME280;47425;51.976;5.326;2022-10-16T13:23:42;101515.41;;;22.31;50.12
61554;BME280;47425;51.976;5.326;2022-10-16T13:26:29;101518.06;;;22.31;50.02
61554;BME280;47425;51.976;5.326;2022-10-16T13:29:01;101512.75;;;22.31;49.86
61554;BME280;47425;51.976;5.326;2022-10-16T13:31:27;101525.97;;;22.33;50.09
61554;BME280;47425;51.976;5.326;2022-10-16T13:33:55;101526.94;;;22.32;49.99
61554;BME280;47425;51.976;5.326;2022-10-16T13:36:51;101526.19;;;22.29;49.92
61554;BME280;47425;51.976;5.326;2022-10-16T13:39:25;101527.03;;;22.30;50.01
61554;BME280;47425;51.976;5.326;2022-10-16T13:42:07;101520.84;;;22.29;50.16
61554;BME280;47425;51.976;5.326;2022-10-16T13:44:40;101522.81;;;22.26;50.14
61554;BME280;47425;51.976;5.326;2022-10-16T13:47:24;101526.97;;;22.16;49.19
61554;BME280;47425;51.976;5.326;2022-10-16T13:50:11;101521.59;;;22.01;48.63
61554;BME280;47425;51.976;5.326;2022-10-16T13:52:38;101517.72;;;21.91;47.84
61554;BME280;47425;51.976;5.326;2022-10-16T13:55:10;101526.25;;;21.82;48.26
61554;BME280;47425;51.976;5.326;2022-10-16T13:57:36;101523.94;;;21.75;48.30
61554;BME280;47425;51.976;5.326;2022-10-16T14:00:17;101529.63;;;21.69;48.37
61554;BME280;47425;51.976;5.326;2022-10-16T14:02:51;101539.69;;;21.64;48.32
61554;BME280;47425;51.976;5.326;2022-10-16T14:05:19;101536.31;;;21.60;48.12
61554;BME280;47425;51.976;5.326;2022-10-16T14:07:49;101541.13;;;21.54;47.91
61554;BME280;47425;51.976;5.326;2022-10-16T14:10:24;101542.22;;;21.50;48.26
61554;BME280;47425;51.976;5.326;2022-10-16T14:13:00;101533.47;;;21.48;48.40
61554;BME280;47425;51.976;5.326;2022-10-16T14:15:29;101539.47;;;21.51;48.37
61554;BME280;47425;51.976;5.326;2022-10-16T14:17:55;101537.34;;;21.58;48.65
61554;BME280;47425;51.976;5.326;2022-10-16T14:20:25;101535.28;;;21.63;48.48
61554;BME280;47425;51.976;5.326;2022-10-16T14:23:02;101521.03;;;21.64;48.88
61554;BME280;47425;51.976;5.326;2022-10-16T14:25:30;101520.75;;;21.69;48.63
61554;BME280;47425;51.976;5.326;2022-10-16T14:30:26;101520.75;;;21.85;49.05
61554;BME280;47425;51.976;5.326;2022-10-16T14:32:59;101526.53;;;21.77;49.01
61554;BME280;47425;51.976;5.326;2022-10-16T14:35:32;101527.66;;;21.73;49.44
61554;BME280;47425;51.976;5.326;2022-10-16T14:38:01;101531.16;;;21.73;49.35
61554;BME280;47425;51.976;5.326;2022-10-16T14:40:32;101530.22;;;21.74;49.44
61554;BME280;47425;51.976;5.326;2022-10-16T14:42:58;101533.00;;;21.73;49.38
61554;BME280;47425;51.976;5.326;2022-10-16T14:45:28;101537.44;;;21.72;49.77
61554;BME280;47425;51.976;5.326;2022-10-16T14:48:02;101541.13;;;21.70;49.82
61554;BME280;47425;51.976;5.326;2022-10-16T14:50:28;101525.16;;;21.70;49.91
61554;BME280;47425;51.976;5.326;2022-10-16T14:52:54;101529.63;;;21.69;49.58
61554;BME280;47425;51.976;5.326;2022-10-16T14:55:21;101519.81;;;21.70;49.83
61554;BME280;47425;51.976;5.326;2022-10-16T14:57:47;101528.75;;;21.69;49.77
61554;BME280;47425;51.976;5.326;2022-10-16T15:00:19;101520.00;;;21.67;49.96
61554;BME280;47425;51.976;5.326;2022-10-16T15:02:47;101516.47;;;21.66;50.03
61554;BME280;47425;51.976;5.326;2022-10-16T15:05:22;101511.16;;;21.66;50.14
61554;BME280;47425;51.976;5.326;2022-10-16T15:07:50;101528.00;;;21.67;49.95
61554;BME280;47425;51.976;5.326;2022-10-16T15:10:17;101523.59;;;21.66;50.24
61554;BME280;47425;51.976;5.326;2022-10-16T15:12:44;101530.56;;;21.68;50.27
61554;BME280;47425;51.976;5.326;2022-10-16T15:15:21;101533.13;;;21.70;50.38
61554;BME280;47425;51.976;5.326;2022-10-16T15:17:53;101528.69;;;21.70;50.25
61554;BME280;47425;51.976;5.326;2022-10-16T15:20:21;101520.41;;;21.75;50.14
61554;BME280;47425;51.976;5.326;2022-10-16T15:22:47;101518.59;;;21.75;50.20
61554;BME280;47425;51.976;5.326;2022-10-16T15:25:29;101520.31;;;21.76;50.27
61554;BME280;47425;51.976;5.326;2022-10-16T15:27:55;101521.97;;;21.79;50.26
61554;BME280;47425;51.976;5.326;2022-10-16T15:30:20;101518.34;;;21.80;50.38
61554;BME280;47425;51.976;5.326;2022-10-16T15:32:47;101523.78;;;21.78;50.21
61554;BME280;47425;51.976;5.326;2022-10-16T15:35:12;101528.94;;;21.82;49.87
61554;BME280;47425;51.976;5.326;2022-10-16T15:37:37;101528.06;;;21.81;50.13
61554;BME280;47425;51.976;5.326;2022-10-16T15:40:04;101517.41;;;21.81;50.00
61554;BME280;47425;51.976;5.326;2022-10-16T15:42:30;101524.53;;;21.81;50.30
61554;BME280;47425;51.976;5.326;2022-10-16T15:44:55;101520.16;;;21.79;50.14
61554;BME280;47425;51.976;5.326;2022-10-16T15:47:21;101521.97;;;21.79;50.38
61554;BME280;47425;51.976;5.326;2022-10-16T15:49:48;101510.53;;;21.77;50.41
61554;BME280;47425;51.976;5.326;2022-10-16T15:52:13;101514.91;;;21.78;50.43
61554;BME280;47425;51.976;5.326;2022-10-16T15:54:38;101516.72;;;21.77;50.54
61554;BME280;47425;51.976;5.326;2022-10-16T15:57:24;101512.50;;;21.73;50.39
61554;BME280;47425;51.976;5.326;2022-10-16T15:59:51;101521.25;;;21.75;50.49
61554;BME280;47425;51.976;5.326;2022-10-16T16:02:16;101521.25;;;21.75;50.40
61554;BME280;47425;51.976;5.326;2022-10-16T16:04:42;101523.09;;;21.75;50.40
61554;BME280;47425;51.976;5.326;2022-10-16T16:07:09;101519.66;;;21.73;50.38
61554;BME280;47425;51.976;5.326;2022-10-16T16:09:34;101520.59;;;21.72;50.78
61554;BME280;47425;51.976;5.326;2022-10-16T16:12:00;101519.72;;;21.71;50.58
61554;BME280;47425;51.976;5.326;2022-10-16T16:14:27;101511.72;;;21.71;50.79
61554;BME280;47425;51.976;5.326;2022-10-16T16:16:55;101525.84;;;21.73;50.59
61554;BME280;47425;51.976;5.326;2022-10-16T16:19:20;101538.22;;;21.74;50.58
61554;BME280;47425;51.976;5.326;2022-10-16T16:21:49;101527.56;;;21.74;50.48
61554;BME280;47425;51.976;5.326;2022-10-16T16:24:15;101526.78;;;21.72;50.45
61554;BME280;47425;51.976;5.326;2022-10-16T16:26:40;101532.09;;;21.72;50.78
61554;BME280;47425;51.976;5.326;2022-10-16T16:29:15;101526.88;;;21.71;50.76
61554;BME280;47425;51.976;5.326;2022-10-16T16:31:41;101524.09;;;21.72;50.76
61554;BME280;47425;51.976;5.326;2022-10-16T16:34:08;101529.34;;;21.74;50.37
61554;BME280;47425;51.976;5.326;2022-10-16T16:36:34;101528.50;;;21.73;50.64
61554;BME280;47425;51.976;5.326;2022-10-16T16:39:00;101539.00;;;21.76;50.82
61554;BME280;47425;51.976;5.326;2022-10-16T16:41:27;101539.94;;;21.75;51.25
61554;BME280;47425;51.976;5.326;2022-10-16T16:43:54;101536.31;;;21.76;50.92
61554;BME280;47425;51.976;5.326;2022-10-16T16:46:20;101541.41;;;21.81;51.30
61554;BME280;47425;51.976;5.326;2022-10-16T16:48:47;101558.06;;;21.85;50.83
61554;BME280;47425;51.976;5.326;2022-10-16T16:51:35;101555.16;;;21.89;50.99
61554;BME280;47425;51.976;5.326;2022-10-16T16:54:01;101555.84;;;21.93;51.11
61554;BME280;47425;51.976;5.326;2022-10-16T16:56:27;101557.31;;;21.99;51.36
61554;BME280;47425;51.976;5.326;2022-10-16T16:58:54;101549.97;;;22.02;51.53
61554;BME280;47425;51.976;5.326;2022-10-16T17:01:22;101552.19;;;22.10;51.78
61554;BME280;47425;51.976;5.326;2022-10-16T17:03:53;101539.66;;;22.12;51.67
61554;BME280;47425;51.976;5.326;2022-10-16T17:06:20;101549.09;;;22.18;52.41
61554;BME280;47425;51.976;5.326;2022-10-16T17:08:47;101561.53;;;22.33;51.87
61554;BME280;47425;51.976;5.326;2022-10-16T17:11:18;101562.84;;;22.26;52.26
61554;BME280;47425;51.976;5.326;2022-10-16T17:13:44;101556.81;;;22.22;52.77
61554;BME280;47425;51.976;5.326;2022-10-16T17:16:10;101551.41;;;22.24;53.05
61554;BME280;47425;51.976;5.326;2022-10-16T17:18:37;101547.97;;;22.22;53.11
61554;BME280;47425;51.976;5.326;2022-10-16T17:21:05;101553.19;;;22.23;52.93
61554;BME280;47425;51.976;5.326;2022-10-16T17:23:31;101551.47;;;22.22;53.04
61554;BME280;47425;51.976;5.326;2022-10-16T17:26:06;101552.50;;;22.20;53.20
61554;BME280;47425;51.976;5.326;2022-10-16T17:28:33;101549.94;;;22.18;53.11
61554;BME280;47425;51.976;5.326;2022-10-16T17:31:17;101557.28;;;22.15;53.11
61554;BME280;47425;51.976;5.326;2022-10-16T17:33:44;101564.41;;;22.14;53.03
61554;BME280;47425;51.976;5.326;2022-10-16T17:36:10;101575.25;;;22.11;52.77
61554;BME280;47425;51.976;5.326;2022-10-16T17:38:38;101575.59;;;22.21;52.72
61554;BME280;47425;51.976;5.326;2022-10-16T17:41:15;101575.25;;;22.11;52.99
61554;BME280;47425;51.976;5.326;2022-10-16T17:43:41;101572.59;;;22.11;53.16
61554;BME280;47425;51.976;5.326;2022-10-16T17:46:09;101578.97;;;22.08;52.61
61554;BME280;47425;51.976;5.326;2022-10-16T17:48:43;101574.66;;;22.06;53.01
61554;BME280;47425;51.976;5.326;2022-10-16T17:51:12;101578.13;;;22.08;52.70
61554;BME280;47425;51.976;5.326;2022-10-16T17:53:39;101576.38;;;22.07;52.78
61554;BME280;47425;51.976;5.326;2022-10-16T17:56:06;101565.72;;;22.07;52.83
61554;BME280;47425;51.976;5.326;2022-10-16T17:58:32;101568.38;;;22.07;52.54
61554;BME280;47425;51.976;5.326;2022-10-16T18:00:58;101561.31;;;22.06;52.79
61554;BME280;47425;51.976;5.326;2022-10-16T18:03:24;101571.06;;;22.07;53.03
61554;BME280;47425;51.976;5.326;2022-10-16T18:05:52;101564.00;;;22.06;53.20
61554;BME280;47425;51.976;5.326;2022-10-16T18:08:18;101573.63;;;22.08;52.82
61554;BME280;47425;51.976;5.326;2022-10-16T18:10:47;101572.69;;;22.09;52.67
61554;BME280;47425;51.976;5.326;2022-10-16T18:13:15;101576.09;;;22.11;52.38
61554;BME280;47425;51.976;5.326;2022-10-16T18:15:41;101581.34;;;22.13;52.53
61554;BME280;47425;51.976;5.326;2022-10-16T18:18:07;101584.03;;;22.13;52.29
61554;BME280;47425;51.976;5.326;2022-10-16T18:20:34;101591.97;;;22.15;52.65
61554;BME280;47425;51.976;5.326;2022-10-16T18:22:59;101600.81;;;22.15;52.36
61554;BME280;47425;51.976;5.326;2022-10-16T18:25:25;101608.03;;;22.13;52.45
61554;BME280;47425;51.976;5.326;2022-10-16T18:27:50;101619.66;;;22.12;52.51
61554;BME280;47425;51.976;5.326;2022-10-16T18:30:17;101620.44;;;22.14;51.99
61554;BME280;47425;51.976;5.326;2022-10-16T18:32:42;101624.81;;;22.15;52.34
61554;BME280;47425;51.976;5.326;2022-10-16T18:35:09;101626.78;;;22.11;51.89
61554;BME280;47425;51.976;5.326;2022-10-16T18:37:35;101644.44;;;22.14;51.92
61554;BME280;47425;51.976;5.326;2022-10-16T18:40:01;101648.91;;;22.13;52.41
61554;BME280;47425;51.976;5.326;2022-10-16T18:42:26;101646.25;;;22.13;52.12
61554;BME280;47425;51.976;5.326;2022-10-16T18:44:51;101650.72;;;22.13;52.11
61554;BME280;47425;51.976;5.326;2022-10-16T18:47:17;101636.44;;;22.14;52.23
61554;BME280;47425;51.976;5.326;2022-10-16T18:49:42;101639.19;;;22.12;52.47
61554;BME280;47425;51.976;5.326;2022-10-16T18:52:08;101642.78;;;22.11;52.54
61554;BME280;47425;51.976;5.326;2022-10-16T18:54:35;101645.47;;;22.11;52.16
61554;BME280;47425;51.976;5.326;2022-10-16T18:57:01;101642.03;;;22.09;52.11
61554;BME280;47425;51.976;5.326;2022-10-16T18:59:27;101646.44;;;22.10;52.21
61554;BME280;47425;51.976;5.326;2022-10-16T19:01:54;101635.78;;;22.10;52.22
61554;BME280;47425;51.976;5.326;2022-10-16T19:04:20;101642.78;;;22.11;52.47
61554;BME280;47425;51.976;5.326;2022-10-16T19:06:49;101629.56;;;22.10;52.48
61554;BME280;47425;51.976;5.326;2022-10-16T19:09:17;101629.38;;;22.13;52.05
61554;BME280;47425;51.976;5.326;2022-10-16T19:11:44;101621.38;;;22.13;52.19
61554;BME280;47425;51.976;5.326;2022-10-16T19:14:11;101624.13;;;22.11;52.39
61554;BME280;47425;51.976;5.326;2022-10-16T19:16:37;101623.38;;;22.09;52.37
61554;BME280;47425;51.976;5.326;2022-10-16T19:19:05;101622.44;;;22.10;52.08
61554;BME280;47425;51.976;5.326;2022-10-16T19:21:34;101618.03;;;22.09;52.16
61554;BME280;47425;51.976;5.326;2022-10-16T19:24:00;101618.88;;;22.10;52.52
61554;BME280;47425;51.976;5.326;2022-10-16T19:26:28;101626.03;;;22.09;52.04
61554;BME280;47425;51.976;5.326;2022-10-16T19:29:14;101629.47;;;22.11;52.38
61554;BME280;47425;51.976;5.326;2022-10-16T19:31:40;101630.44;;;22.10;52.01
61554;BME280;47425;51.976;5.326;2022-10-16T19:34:06;101625.94;;;22.11;52.26
61554;BME280;47425;51.976;5.326;2022-10-16T19:36:33;101639.38;;;22.09;52.15
61554;BME280;47425;51.976;5.326;2022-10-16T19:39:07;101641.16;;;22.09;52.27
61554;BME280;47425;51.976;5.326;2022-10-16T19:41:35;101642.03;;;22.09;52.40
61554;BME280;47425;51.976;5.326;2022-10-16T19:44:02;101642.97;;;22.08;52.18
61554;BME280;47425;51.976;5.326;2022-10-16T19:46:28;101653.66;;;22.08;52.28
61554;BME280;47425;51.976;5.326;2022-10-16T19:48:57;101659.84;;;22.09;52.15
61554;BME280;47425;51.976;5.326;2022-10-16T19:51:24;101656.31;;;22.08;51.86
61554;BME280;47425;51.976;5.326;2022-10-16T19:53:53;101653.84;;;22.05;52.16
61554;BME280;47425;51.976;5.326;2022-10-16T19:56:21;101657.25;;;22.07;52.45
61554;BME280;47425;51.976;5.326;2022-10-16T19:58:49;101658.22;;;22.06;52.38
61554;BME280;47425;51.976;5.326;2022-10-16T20:01:16;101642.22;;;22.06;52.58
61554;BME280;47425;51.976;5.326;2022-10-16T20:03:43;101628.88;;;22.06;52.25
61554;BME280;47425;51.976;5.326;2022-10-16T20:06:10;101623.78;;;22.18;52.09
61554;BME280;47425;51.976;5.326;2022-10-16T20:08:36;101618.78;;;22.11;52.19
61554;BME280;47425;51.976;5.326;2022-10-16T20:11:03;101616.31;;;22.08;52.17
61554;BME280;47425;51.976;5.326;2022-10-16T20:13:30;101617.25;;;22.07;52.28
61554;BME280;47425;51.976;5.326;2022-10-16T20:15:56;101633.25;;;22.07;52.36
61554;BME280;47425;51.976;5.326;2022-10-16T20:18:22;101634.38;;;22.03;52.26
61554;BME280;47425;51.976;5.326;2022-10-16T20:20:48;101646.59;;;22.07;52.44
61554;BME280;47425;51.976;5.326;2022-10-16T20:23:16;101634.13;;;22.08;52.34
61554;BME280;47425;51.976;5.326;2022-10-16T20:25:42;101628.00;;;22.06;52.24
61554;BME280;47425;51.976;5.326;2022-10-16T20:28:12;101617.44;;;22.04;52.29
61554;BME280;47425;51.976;5.326;2022-10-16T20:30:39;101613.81;;;22.05;52.51
61554;BME280;47425;51.976;5.326;2022-10-16T20:33:06;101613.72;;;22.07;52.52
61554;BME280;47425;51.976;5.326;2022-10-16T20:35:40;101620.88;;;22.06;52.67
61554;BME280;47425;51.976;5.326;2022-10-16T20:38:06;101606.75;;;22.04;52.23
61554;BME280;47425;51.976;5.326;2022-10-16T20:40:35;101605.97;;;22.02;52.55
61554;BME280;47425;51.976;5.326;2022-10-16T20:43:02;101613.13;;;22.02;52.48
61554;BME280;47425;51.976;5.326;2022-10-16T20:45:28;101609.53;;;22.03;52.20
61554;BME280;47425;51.976;5.326;2022-10-16T20:47:54;101607.09;;;21.98;52.16
61554;BME280;47425;51.976;5.326;2022-10-16T20:50:20;101599.09;;;21.98;52.28
61554;BME280;47425;51.976;5.326;2022-10-16T20:52:45;101607.03;;;22.00;52.21
61554;BME280;47425;51.976;5.326;2022-10-16T20:55:10;101602.72;;;21.97;52.29
61554;BME280;47425;51.976;5.326;2022-10-16T20:57:36;101601.94;;;21.95;52.12
61554;BME280;47425;51.976;5.326;2022-10-16T21:00:04;101613.72;;;21.91;52.42
61554;BME280;47425;51.976;5.326;2022-10-16T21:02:30;101621.72;;;21.91;52.34
61554;BME280;47425;51.976;5.326;2022-10-16T21:04:55;101612.00;;;21.90;52.16
61554;BME280;47425;51.976;5.326;2022-10-16T21:07:22;101618.28;;;21.89;52.44
61554;BME280;47425;51.976;5.326;2022-10-16T21:09:47;101627.16;;;21.89;52.15
61554;BME280;47425;51.976;5.326;2022-10-16T21:12:14;101635.25;;;21.88;52.24
61554;BME280;47425;51.976;5.326;2022-10-16T21:14:39;101623.69;;;21.87;52.19
61554;BME280;47425;51.976;5.326;2022-10-16T21:17:06;101615.78;;;21.86;52.30
61554;BME280;47425;51.976;5.326;2022-10-16T21:19:32;101622.94;;;21.85;52.12
61554;BME280;47425;51.976;5.326;2022-10-16T21:21:58;101625.63;;;21.85;52.11
61554;BME280;47425;51.976;5.326;2022-10-16T21:24:24;101625.63;;;21.85;52.19
61554;BME280;47425;51.976;5.326;2022-10-16T21:26:50;101612.28;;;21.85;52.24
61554;BME280;47425;51.976;5.326;2022-10-16T21:29:16;101615.88;;;21.84;52.29
61554;BME280;47425;51.976;5.326;2022-10-16T21:31:42;101591.97;;;21.83;52.38
61554;BME280;47425;51.976;5.326;2022-10-16T21:34:08;101591.03;;;21.84;52.19
61554;BME280;47425;51.976;5.326;2022-10-16T21:36:36;101576.91;;;21.82;52.48
61554;BME280;47425;51.976;5.326;2022-10-16T21:39:07;101584.16;;;21.79;52.20
61554;BME280;47425;51.976;5.326;2022-10-16T21:41:35;101590.25;;;21.82;52.26
61554;BME280;47425;51.976;5.326;2022-10-16T21:44:01;101587.59;;;21.82;52.09
61554;BME280;47425;51.976;5.326;2022-10-16T21:46:29;101564.63;;;21.79;52.14
61554;BME280;47425;51.976;5.326;2022-10-16T21:48:57;101569.09;;;21.78;52.11
61554;BME280;47425;51.976;5.326;2022-10-16T21:51:26;101559.38;;;21.77;52.37
61554;BME280;47425;51.976;5.326;2022-10-16T21:53:51;101563.78;;;21.78;52.09
61554;BME280;47425;51.976;5.326;2022-10-16T21:56:17;101571.75;;;21.78;51.87
61554;BME280;47425;51.976;5.326;2022-10-16T21:58:43;101579.84;;;21.77;52.35
61554;BME280;47425;51.976;5.326;2022-10-16T22:01:11;101570.03;;;21.77;52.24
61554;BME280;47425;51.976;5.326;2022-10-16T22:03:37;101563.78;;;21.78;52.14
61554;BME280;47425;51.976;5.326;2022-10-16T22:06:04;101559.47;;;21.76;52.16
61554;BME280;47425;51.976;5.326;2022-10-16T22:08:31;101556.81;;;21.76;52.29
61554;BME280;47425;51.976;5.326;2022-10-16T22:11:04;101553.34;;;21.74;52.08
61554;BME280;47425;51.976;5.326;2022-10-16T22:13:31;101547.06;;;21.75;51.85
61554;BME280;47425;51.976;5.326;2022-10-16T22:15:57;101535.72;;;21.71;52.08
61554;BME280;47425;51.976;5.326;2022-10-16T22:18:23;101525.84;;;21.73;52.21
61554;BME280;47425;51.976;5.326;2022-10-16T22:20:49;101525.00;;;21.73;52.26
61554;BME280;47425;51.976;5.326;2022-10-16T22:23:14;101525.00;;;21.73;52.33
61554;BME280;47425;51.976;5.326;2022-10-16T22:25:41;101524.09;;;21.72;52.31
61554;BME280;47425;51.976;5.326;2022-10-16T22:28:07;101525.94;;;21.72;52.19
